createdAt,value
2023-03-22T00:00:16.341Z,11.550685
2023-03-22T00:05:16.430Z,11.219310
2023-03-22T00:10:15.949Z,11.210274
2023-03-22T00:15:15.787Z,11.143056
2023-03-22T00:20:16.005Z,11.388194
2023-03-22T00:25:16.811Z,10.912587
2023-03-22T00:30:15.782Z,10.713194
2023-03-22T00:35:15.764Z,10.973239
2023-03-22T00:40:17.900Z,11.021127
2023-03-22T00:45:16.242Z,10.972028
2023-03-22T00:50:16.681Z,11.091549
2023-03-22T00:55:15.816Z,11.327972
2023-03-22T01:00:16.038Z,11.340690
2023-03-22T01:05:16.173Z,11.237762
2023-03-22T01:10:15.589Z,10.876923
2023-03-22T01:15:15.713Z,10.904930
2023-03-22T01:20:16.732Z,10.795139
2023-03-22T01:25:15.989Z,10.693793
2023-03-22T01:30:15.578Z,10.660417
2023-03-22T01:35:16.161Z,10.523611
2023-03-22T01:40:16.015Z,10.502778
2023-03-22T01:45:15.689Z,10.444366
2023-03-22T01:50:16.169Z,10.264789
2023-03-22T01:55:15.874Z,10.279021
2023-03-22T02:00:16.043Z,10.311111
2023-03-22T02:05:16.206Z,10.160839
2023-03-22T02:10:16.829Z,10.032609
2023-03-22T02:15:16.207Z,9.994964
2023-03-22T02:20:15.690Z,9.933571
2023-03-22T02:25:15.793Z,9.930000
2023-03-22T02:30:15.909Z,9.953901
2023-03-22T02:35:15.875Z,9.844681
2023-03-22T02:40:16.121Z,9.916197
2023-03-22T02:45:15.541Z,9.920979
2023-03-22T02:50:16.737Z,9.988966
2023-03-22T02:55:16.321Z,10.115278
2023-03-22T03:00:21.361Z,9.923404
2023-03-22T03:05:16.012Z,10.050350
2023-03-22T03:10:15.897Z,9.779021
2023-03-22T03:15:20.667Z,9.761972
2023-03-22T03:20:15.733Z,9.777465
2023-03-22T03:25:15.554Z,9.827465
2023-03-22T03:30:15.895Z,9.800719
2023-03-22T03:35:16.450Z,9.787857
2023-03-22T03:40:15.920Z,9.780986
2023-03-22T03:45:15.737Z,9.834043
2023-03-22T03:50:16.476Z,9.988112
2023-03-22T03:55:16.123Z,10.095139
2023-03-22T04:00:15.855Z,10.163889
2023-03-22T04:05:16.809Z,10.097887
2023-03-22T04:10:15.552Z,9.929167
2023-03-22T04:15:16.152Z,9.969444
2023-03-22T04:20:15.982Z,9.859028
2023-03-22T04:25:15.537Z,9.863889
2023-03-22T04:30:16.455Z,10.027972
2023-03-22T04:35:15.773Z,9.978472
2023-03-22T04:40:15.777Z,9.880420
2023-03-22T04:45:16.513Z,9.950694
2023-03-22T04:50:16.426Z,9.888966
2023-03-22T04:55:15.602Z,9.762069
2023-03-22T05:00:16.203Z,9.907692
2023-03-22T05:05:15.659Z,9.627465
2023-03-22T05:10:15.665Z,9.557746
2023-03-22T05:15:16.772Z,9.482270
2023-03-22T05:20:16.121Z,9.523776
2023-03-22T05:25:15.972Z,9.558621
2023-03-22T05:30:16.083Z,9.573103
2023-03-22T05:35:16.721Z,9.447260
2023-03-22T05:40:16.014Z,9.300000
2023-03-22T05:45:16.792Z,9.261644
2023-03-22T05:50:15.819Z,9.282993
2023-03-22T05:55:16.617Z,9.415541
2023-03-22T06:00:16.449Z,9.417007
2023-03-22T06:05:16.071Z,9.300000
2023-03-22T06:10:16.551Z,9.233108
2023-03-22T06:15:15.842Z,9.050000
2023-03-22T06:20:15.771Z,8.908054
2023-03-22T06:25:15.920Z,8.944966
2023-03-22T06:30:17.247Z,8.966438
2023-03-22T06:35:15.581Z,8.817450
2023-03-22T06:40:15.647Z,8.427211
2023-03-22T06:45:16.706Z,8.194521
2023-03-22T06:50:16.150Z,8.220280
2023-03-22T06:55:15.739Z,8.389655
2023-03-22T07:00:16.195Z,8.500694
2023-03-22T07:05:16.251Z,8.463889
2023-03-22T07:10:15.745Z,8.306897
2023-03-22T07:15:15.601Z,8.306897
2023-03-22T07:20:15.937Z,8.396599
2023-03-22T07:25:16.166Z,8.371918
2023-03-22T07:30:16.787Z,8.308276
2023-03-22T07:35:15.989Z,8.338889
2023-03-22T07:40:16.251Z,8.370345
2023-03-22T07:45:15.619Z,8.331034
2023-03-22T07:50:16.341Z,8.311724
2023-03-22T07:55:15.672Z,8.293793
2023-03-22T08:00:15.767Z,8.296528
2023-03-22T08:05:15.932Z,8.300000
2023-03-22T08:10:15.696Z,8.316438
2023-03-22T08:15:15.525Z,8.365306
2023-03-22T08:20:16.669Z,8.301370
2023-03-22T08:25:16.512Z,8.300000
2023-03-22T08:30:16.099Z,8.281757
2023-03-22T08:35:15.783Z,7.981081
2023-03-22T08:40:15.837Z,8.050685
2023-03-22T08:45:16.020Z,8.106803
2023-03-22T08:50:16.070Z,8.090411
2023-03-22T08:55:15.917Z,8.184028
2023-03-22T09:00:15.761Z,8.259028
2023-03-22T09:05:15.625Z,8.115972
2023-03-22T09:10:15.645Z,8.312500
2023-03-22T09:15:16.421Z,8.343750
2023-03-22T09:20:16.495Z,8.268056
2023-03-22T09:25:15.617Z,8.009722
2023-03-22T09:30:16.042Z,8.002143
2023-03-22T09:35:16.100Z,8.068531
2023-03-22T09:40:15.894Z,8.224476
2023-03-22T09:45:16.181Z,8.374306
2023-03-22T09:50:16.188Z,8.424306
2023-03-22T09:55:16.388Z,8.374825
2023-03-22T10:00:15.922Z,8.512857
2023-03-22T10:05:16.065Z,8.461538
2023-03-22T10:10:15.691Z,8.568750
2023-03-22T10:15:16.185Z,8.577622
2023-03-22T10:20:16.121Z,8.348611
2023-03-22T10:25:16.118Z,8.244828
2023-03-22T10:30:17.165Z,8.168056
2023-03-22T10:35:16.015Z,8.195890
2023-03-22T10:40:15.994Z,8.253103
2023-03-22T10:45:16.499Z,8.175694
2023-03-22T10:50:16.652Z,7.834507
2023-03-22T10:55:15.801Z,7.750000
2023-03-22T11:00:15.852Z,7.718621
2023-03-22T11:05:16.750Z,7.759310
2023-03-22T11:10:15.708Z,7.772414
2023-03-22T11:15:16.727Z,7.561379
2023-03-22T11:20:16.392Z,7.095890
2023-03-22T11:25:17.221Z,7.108108
2023-03-22T11:30:15.631Z,6.997260
2023-03-22T11:35:16.005Z,7.053061
2023-03-22T11:40:15.663Z,7.010204
2023-03-22T11:45:15.683Z,6.835862
2023-03-22T11:50:16.200Z,6.791034
2023-03-22T11:55:15.660Z,6.743836
2023-03-22T12:00:16.015Z,6.647586
2023-03-22T12:05:15.916Z,6.462500
2023-03-22T12:10:16.911Z,6.452083
2023-03-22T12:15:15.567Z,6.479592
2023-03-22T12:20:15.979Z,6.745890
2023-03-22T12:25:17.577Z,6.754054
2023-03-22T12:30:15.754Z,6.604795
2023-03-22T12:35:20.925Z,6.315172
2023-03-22T12:40:15.647Z,6.180822
2023-03-22T12:45:15.679Z,5.930612
2023-03-22T12:50:16.718Z,5.929452
2023-03-22T12:55:16.328Z,6.042177
2023-03-22T13:00:17.083Z,5.617808
2023-03-22T13:05:16.425Z,5.499324
2023-03-22T13:10:16.617Z,5.485235
2023-03-22T13:15:15.930Z,5.342657
2023-03-22T13:20:16.382Z,5.254167
2023-03-22T13:25:16.284Z,5.359722
2023-03-22T13:30:15.901Z,5.282517
2023-03-22T13:35:16.708Z,5.242958
2023-03-22T13:40:16.421Z,5.247917
2023-03-22T13:45:15.530Z,5.661111
2023-03-22T13:50:16.248Z,5.742759
2023-03-22T13:55:18.489Z,5.746575
2023-03-22T14:00:18.320Z,5.563448
2023-03-22T14:05:16.035Z,5.635172
2023-03-22T14:10:15.936Z,5.897260
2023-03-22T14:15:15.878Z,5.937584
2023-03-22T14:20:15.968Z,6.021769
2023-03-22T14:55:17.038Z,7.980822
2023-03-22T15:00:16.237Z,8.502069
2023-03-22T15:05:16.036Z,8.238194
2023-03-22T15:10:16.361Z,7.760417
2023-03-22T15:15:16.194Z,7.453472
2023-03-22T15:20:15.989Z,7.658042
2023-03-22T15:25:17.721Z,8.004861
2023-03-22T15:30:16.012Z,8.166197
2023-03-22T15:35:15.802Z,7.714085
2023-03-22T15:40:16.251Z,7.800000
2023-03-22T15:45:16.184Z,7.169504
2023-03-22T15:50:15.640Z,7.191549
2023-03-22T15:55:17.980Z,7.540426
2023-03-22T16:00:16.523Z,7.793007
2023-03-22T16:05:17.388Z,7.960839
2023-03-22T16:10:16.205Z,8.179577
2023-03-22T16:15:17.734Z,8.409028
2023-03-22T16:20:16.023Z,8.781818
2023-03-22T16:25:16.509Z,9.000000
2023-03-22T16:30:16.569Z,10.060417
2023-03-22T16:35:17.125Z,10.330769
2023-03-22T16:40:16.955Z,10.355245
2023-03-22T16:45:15.648Z,10.985417
2023-03-22T16:50:16.096Z,11.037241
2023-03-22T16:55:16.720Z,10.869178
2023-03-22T17:00:16.949Z,10.876552
2023-03-22T17:05:16.064Z,10.546939
2023-03-22T17:10:17.551Z,10.417007
2023-03-22T17:15:17.913Z,9.547518
2023-03-22T17:20:15.863Z,9.805674
2023-03-22T17:25:15.655Z,9.814388
2023-03-22T17:30:18.021Z,10.113889
2023-03-22T17:35:15.743Z,9.397101
2023-03-22T17:40:32.582Z,9.123022
2023-03-22T17:45:17.273Z,9.850000
2023-03-22T17:50:16.321Z,9.909091
2023-03-22T17:55:22.284Z,10.518621
2023-03-22T18:00:16.299Z,9.734722
2023-03-22T18:05:19.383Z,9.913194
2023-03-22T18:10:16.596Z,10.204110
2023-03-22T18:15:17.572Z,9.931690
2023-03-22T18:20:29.462Z,9.908571
2023-03-22T18:25:16.193Z,10.603521
2023-03-22T18:30:17.304Z,11.071329
2023-03-22T18:35:22.194Z,10.708333
2023-03-22T18:41:22.043Z,10.977241
2023-03-22T18:45:16.509Z,10.905517
2023-03-22T18:50:15.874Z,10.512414
2023-03-22T18:55:29.492Z,10.962759
2023-03-22T19:00:16.196Z,11.023288
2023-03-22T19:05:16.869Z,10.996552
2023-03-22T19:10:16.437Z,11.170833
2023-03-22T19:15:42.330Z,10.722069
2023-03-22T19:20:16.395Z,10.495139
2023-03-22T19:25:16.476Z,11.171034
2023-03-22T19:30:16.532Z,11.206944
2023-03-22T19:35:15.788Z,11.078082
2023-03-22T19:41:28.272Z,11.431250
2023-03-22T19:45:16.440Z,11.704861
2023-03-22T19:50:16.410Z,12.221528
2023-03-22T19:55:16.304Z,12.207586
2023-03-22T20:00:45.150Z,11.891781
2023-03-22T20:05:17.996Z,12.579730
2023-03-22T20:10:16.718Z,13.109396
2023-03-22T20:15:15.941Z,13.704730
2023-03-22T20:20:16.490Z,13.199324
2023-03-22T20:25:16.434Z,12.558784
2023-03-22T20:30:15.951Z,12.816107
2023-03-22T20:35:17.659Z,12.512081
2023-03-22T20:40:15.764Z,12.704027
2023-03-22T20:45:18.750Z,12.902721
2023-03-22T20:50:15.634Z,13.381208
2023-03-22T20:55:16.067Z,13.527333
2023-03-22T21:00:16.358Z,14.191216
2023-03-22T21:05:17.744Z,14.813605
2023-03-22T21:10:16.928Z,15.230556
2023-03-22T21:15:16.318Z,15.291608
2023-03-22T21:20:26.948Z,16.750685
2023-03-22T21:25:15.864Z,16.566438
2023-03-22T21:30:16.000Z,16.684932
2023-03-22T21:35:16.525Z,17.119048
2023-03-22T21:40:15.643Z,16.851370
2023-03-22T21:45:15.848Z,16.551370
2023-03-22T21:50:16.068Z,16.821233
2023-03-22T21:55:16.386Z,17.096528
2023-03-22T22:00:17.848Z,17.238732
2023-03-22T22:05:16.918Z,17.541958
2023-03-22T22:10:16.623Z,17.600000
2023-03-22T22:15:17.745Z,17.329861
2023-03-22T22:20:16.558Z,17.644366
2023-03-22T22:25:16.411Z,17.973239
2023-03-22T22:30:17.693Z,17.870345
2023-03-22T22:35:16.739Z,18.125352
2023-03-22T22:40:16.852Z,18.045775
2023-03-22T22:45:22.089Z,18.404255
2023-03-22T22:50:16.285Z,18.438732
2023-03-22T22:55:16.477Z,18.220000
2023-03-22T23:00:16.410Z,17.972340
2023-03-22T23:05:16.632Z,18.301418
2023-03-22T23:10:16.683Z,17.772340
2023-03-22T23:15:27.105Z,17.109220
2023-03-22T23:20:16.516Z,17.000709
2023-03-22T23:25:16.000Z,17.280851
2023-03-22T23:30:15.697Z,17.500709
2023-03-22T23:35:16.309Z,17.909929
2023-03-22T23:40:16.018Z,18.009091
2023-03-22T23:45:16.519Z,18.016197
2023-03-22T23:50:16.897Z,17.566901
2023-03-22T23:55:15.956Z,17.609155
